sensor_id;sensor_type;location;lat;lon;timestamp;temperature;humidity
33580;DHT22;19909;43.644;-79.438;2022-07-23T00:01:04;22.40;54.30
33580;DHT22;19909;43.644;-79.438;2022-07-23T00:03:30;22.40;54.30
33580;DHT22;19909;43.644;-79.438;2022-07-23T00:05:57;22.40;54.30
33580;DHT22;19909;43.644;-79.438;2022-07-23T00:08:23;22.40;54.30
33580;DHT22;19909;43.644;-79.438;2022-07-23T00:10:49;22.40;54.30
33580;DHT22;19909;43.644;-79.438;2022-07-23T00:13:15;22.40;54.30
33580;DHT22;19909;43.644;-79.438;2022-07-23T00:15:41;22.40;54.30
33580;DHT22;19909;43.644;-79.438;2022-07-23T00:18:08;22.40;54.30
33580;DHT22;19909;43.644;-79.438;2022-07-23T00:20:34;22.40;54.30
33580;DHT22;19909;43.644;-79.438;2022-07-23T00:23:00;22.40;54.30
33580;DHT22;19909;43.644;-79.438;2022-07-23T00:25:27;22.40;54.30
33580;DHT22;19909;43.644;-79.438;2022-07-23T00:27:53;22.40;54.30
33580;DHT22;19909;43.644;-79.438;2022-07-23T00:30:19;22.40;54.30
33580;DHT22;19909;43.644;-79.438;2022-07-23T00:32:53;22.40;54.30
33580;DHT22;19909;43.644;-79.438;2022-07-23T00:35:21;22.50;54.20
33580;DHT22;19909;43.644;-79.438;2022-07-23T00:37:48;22.50;54.20
33580;DHT22;19909;43.644;-79.438;2022-07-23T00:40:14;22.50;54.20
33580;DHT22;19909;43.644;-79.438;2022-07-23T00:42:40;22.50;54.20
33580;DHT22;19909;43.644;-79.438;2022-07-23T00:45:07;22.50;54.30
33580;DHT22;19909;43.644;-79.438;2022-07-23T00:47:33;22.50;54.30
33580;DHT22;19909;43.644;-79.438;2022-07-23T00:50:00;22.50;54.30
33580;DHT22;19909;43.644;-79.438;2022-07-23T00:52:26;22.50;54.30
33580;DHT22;19909;43.644;-79.438;2022-07-23T00:54:55;22.50;54.30
33580;DHT22;19909;43.644;-79.438;2022-07-23T00:57:22;22.60;54.40
33580;DHT22;19909;43.644;-79.438;2022-07-23T00:59:48;22.50;54.40
33580;DHT22;19909;43.644;-79.438;2022-07-23T01:02:14;22.50;54.40
33580;DHT22;19909;43.644;-79.438;2022-07-23T01:04:40;22.50;54.40
33580;DHT22;19909;43.644;-79.438;2022-07-23T01:07:07;22.60;54.40
33580;DHT22;19909;43.644;-79.438;2022-07-23T01:09:33;22.50;54.90
33580;DHT22;19909;43.644;-79.438;2022-07-23T01:12:00;22.60;54.40
33580;DHT22;19909;43.644;-79.438;2022-07-23T01:14:26;22.50;54.80
33580;DHT22;19909;43.644;-79.438;2022-07-23T01:16:52;22.50;54.30
33580;DHT22;19909;43.644;-79.438;2022-07-23T01:19:19;22.60;54.40
33580;DHT22;19909;43.644;-79.438;2022-07-23T01:21:48;22.60;54.40
33580;DHT22;19909;43.644;-79.438;2022-07-23T01:24:15;22.60;54.40
33580;DHT22;19909;43.644;-79.438;2022-07-23T01:26:43;22.60;54.40
33580;DHT22;19909;43.644;-79.438;2022-07-23T01:29:10;22.60;54.40
33580;DHT22;19909;43.644;-79.438;2022-07-23T01:31:36;22.60;54.30
33580;DHT22;19909;43.644;-79.438;2022-07-23T01:34:02;22.60;54.50
33580;DHT22;19909;43.644;-79.438;2022-07-23T01:36:30;22.60;54.50
33580;DHT22;19909;43.644;-79.438;2022-07-23T01:38:56;22.60;54.40
33580;DHT22;19909;43.644;-79.438;2022-07-23T01:41:22;22.60;54.40
33580;DHT22;19909;43.644;-79.438;2022-07-23T01:43:48;22.60;54.40
33580;DHT22;19909;43.644;-79.438;2022-07-23T01:46:14;22.60;54.40
33580;DHT22;19909;43.644;-79.438;2022-07-23T01:48:41;22.60;54.40
33580;DHT22;19909;43.644;-79.438;2022-07-23T01:51:08;22.60;54.30
33580;DHT22;19909;43.644;-79.438;2022-07-23T01:53:34;22.60;54.30
33580;DHT22;19909;43.644;-79.438;2022-07-23T01:56:01;22.60;54.30
33580;DHT22;19909;43.644;-79.438;2022-07-23T01:58:27;22.60;54.30
33580;DHT22;19909;43.644;-79.438;2022-07-23T02:00:54;22.60;54.30
33580;DHT22;19909;43.644;-79.438;2022-07-23T02:03:21;22.60;54.30
33580;DHT22;19909;43.644;-79.438;2022-07-23T02:05:48;22.60;54.30
33580;DHT22;19909;43.644;-79.438;2022-07-23T02:08:14;22.60;54.30
33580;DHT22;19909;43.644;-79.438;2022-07-23T02:10:41;22.60;54.20
33580;DHT22;19909;43.644;-79.438;2022-07-23T02:13:07;22.60;54.20
33580;DHT22;19909;43.644;-79.438;2022-07-23T02:15:33;22.60;54.30
33580;DHT22;19909;43.644;-79.438;2022-07-23T02:18:00;22.60;54.20
33580;DHT22;19909;43.644;-79.438;2022-07-23T02:20:26;22.60;54.20
33580;DHT22;19909;43.644;-79.438;2022-07-23T02:22:52;22.60;54.10
33580;DHT22;19909;43.644;-79.438;2022-07-23T02:25:18;22.60;54.10
33580;DHT22;19909;43.644;-79.438;2022-07-23T02:27:45;22.60;54.10
33580;DHT22;19909;43.644;-79.438;2022-07-23T02:30:12;22.70;54.10
33580;DHT22;19909;43.644;-79.438;2022-07-23T02:32:38;22.60;54.10
33580;DHT22;19909;43.644;-79.438;2022-07-23T02:35:05;22.70;54.10
33580;DHT22;19909;43.644;-79.438;2022-07-23T02:37:32;22.60;54.20
33580;DHT22;19909;43.644;-79.438;2022-07-23T02:39:58;22.60;54.60
33580;DHT22;19909;43.644;-79.438;2022-07-23T02:42:25;22.60;54.10
33580;DHT22;19909;43.644;-79.438;2022-07-23T02:44:52;22.60;54.00
33580;DHT22;19909;43.644;-79.438;2022-07-23T02:47:18;22.60;54.00
33580;DHT22;19909;43.644;-79.438;2022-07-23T02:49:44;22.70;54.10
33580;DHT22;19909;43.644;-79.438;2022-07-23T02:52:10;22.60;54.00
33580;DHT22;19909;43.644;-79.438;2022-07-23T02:54:38;22.60;54.00
33580;DHT22;19909;43.644;-79.438;2022-07-23T02:57:04;22.70;54.00
33580;DHT22;19909;43.644;-79.438;2022-07-23T02:59:30;22.70;53.90
33580;DHT22;19909;43.644;-79.438;2022-07-23T03:01:57;22.60;53.80
33580;DHT22;19909;43.644;-79.438;2022-07-23T03:04:23;22.70;53.90
33580;DHT22;19909;43.644;-79.438;2022-07-23T03:06:49;22.70;53.80
33580;DHT22;19909;43.644;-79.438;2022-07-23T03:09:15;22.60;53.70
33580;DHT22;19909;43.644;-79.438;2022-07-23T03:11:41;22.70;53.80
33580;DHT22;19909;43.644;-79.438;2022-07-23T03:14:07;22.60;54.20
33580;DHT22;19909;43.644;-79.438;2022-07-23T03:16:33;22.70;53.70
33580;DHT22;19909;43.644;-79.438;2022-07-23T03:19:00;22.60;53.60
33580;DHT22;19909;43.644;-79.438;2022-07-23T03:21:26;22.60;53.70
33580;DHT22;19909;43.644;-79.438;2022-07-23T03:23:52;22.60;53.70
33580;DHT22;19909;43.644;-79.438;2022-07-23T03:26:18;22.60;53.60
33580;DHT22;19909;43.644;-79.438;2022-07-23T03:28:45;22.70;53.70
33580;DHT22;19909;43.644;-79.438;2022-07-23T03:31:11;22.60;53.60
33580;DHT22;19909;43.644;-79.438;2022-07-23T03:33:37;22.60;53.60
33580;DHT22;19909;43.644;-79.438;2022-07-23T03:36:03;22.60;53.60
33580;DHT22;19909;43.644;-79.438;2022-07-23T03:38:30;22.60;53.60
33580;DHT22;19909;43.644;-79.438;2022-07-23T03:40:56;22.60;53.60
33580;DHT22;19909;43.644;-79.438;2022-07-23T03:43:22;22.60;53.60
33580;DHT22;19909;43.644;-79.438;2022-07-23T03:45:51;22.60;53.60
33580;DHT22;19909;43.644;-79.438;2022-07-23T03:48:17;22.60;53.60
33580;DHT22;19909;43.644;-79.438;2022-07-23T03:50:43;22.60;53.70
33580;DHT22;19909;43.644;-79.438;2022-07-23T03:53:09;22.60;53.60
33580;DHT22;19909;43.644;-79.438;2022-07-23T03:55:36;22.60;53.60
33580;DHT22;19909;43.644;-79.438;2022-07-23T03:58:02;22.60;53.60
33580;DHT22;19909;43.644;-79.438;2022-07-23T04:00:28;22.60;53.70
33580;DHT22;19909;43.644;-79.438;2022-07-23T04:03:01;22.60;53.60
33580;DHT22;19909;43.644;-79.438;2022-07-23T04:05:27;22.60;53.60
33580;DHT22;19909;43.644;-79.438;2022-07-23T04:07:53;22.60;53.60
33580;DHT22;19909;43.644;-79.438;2022-07-23T04:10:19;22.60;53.60
33580;DHT22;19909;43.644;-79.438;2022-07-23T04:12:48;22.60;53.70
33580;DHT22;19909;43.644;-79.438;2022-07-23T04:15:14;22.60;53.60
33580;DHT22;19909;43.644;-79.438;2022-07-23T04:17:40;22.60;53.60
33580;DHT22;19909;43.644;-79.438;2022-07-23T04:20:07;22.60;53.60
33580;DHT22;19909;43.644;-79.438;2022-07-23T04:22:33;22.60;53.60
33580;DHT22;19909;43.644;-79.438;2022-07-23T04:24:59;22.60;53.60
33580;DHT22;19909;43.644;-79.438;2022-07-23T04:27:25;22.60;53.60
33580;DHT22;19909;43.644;-79.438;2022-07-23T04:29:52;22.60;53.60
33580;DHT22;19909;43.644;-79.438;2022-07-23T04:32:18;22.60;53.60
33580;DHT22;19909;43.644;-79.438;2022-07-23T04:34:44;22.60;53.60
33580;DHT22;19909;43.644;-79.438;2022-07-23T04:37:10;22.60;53.70
33580;DHT22;19909;43.644;-79.438;2022-07-23T04:39:37;22.60;53.70
33580;DHT22;19909;43.644;-79.438;2022-07-23T04:42:08;22.60;53.70
33580;DHT22;19909;43.644;-79.438;2022-07-23T04:44:35;22.60;53.70
33580;DHT22;19909;43.644;-79.438;2022-07-23T04:47:01;22.60;53.70
33580;DHT22;19909;43.644;-79.438;2022-07-23T04:49:27;22.60;53.60
33580;DHT22;19909;43.644;-79.438;2022-07-23T04:51:53;22.60;53.70
33580;DHT22;19909;43.644;-79.438;2022-07-23T04:54:19;22.60;53.60
33580;DHT22;19909;43.644;-79.438;2022-07-23T04:56:46;22.60;53.60
33580;DHT22;19909;43.644;-79.438;2022-07-23T04:59:12;22.60;53.60
33580;DHT22;19909;43.644;-79.438;2022-07-23T05:01:38;22.60;53.60
33580;DHT22;19909;43.644;-79.438;2022-07-23T05:04:04;22.60;53.60
33580;DHT22;19909;43.644;-79.438;2022-07-23T05:06:31;22.60;53.60
33580;DHT22;19909;43.644;-79.438;2022-07-23T05:08:57;22.60;53.60
33580;DHT22;19909;43.644;-79.438;2022-07-23T05:11:23;22.60;53.60
33580;DHT22;19909;43.644;-79.438;2022-07-23T05:13:49;22.60;53.60
33580;DHT22;19909;43.644;-79.438;2022-07-23T05:16:15;22.60;53.60
33580;DHT22;19909;43.644;-79.438;2022-07-23T05:18:41;22.50;53.50
33580;DHT22;19909;43.644;-79.438;2022-07-23T05:21:10;22.50;53.50
33580;DHT22;19909;43.644;-79.438;2022-07-23T05:23:36;22.50;53.50
33580;DHT22;19909;43.644;-79.438;2022-07-23T05:26:02;22.60;53.50
33580;DHT22;19909;43.644;-79.438;2022-07-23T05:28:29;22.50;53.40
33580;DHT22;19909;43.644;-79.438;2022-07-23T05:30:55;22.60;53.50
33580;DHT22;19909;43.644;-79.438;2022-07-23T05:33:21;22.50;53.50
33580;DHT22;19909;43.644;-79.438;2022-07-23T05:35:47;22.50;53.40
33580;DHT22;19909;43.644;-79.438;2022-07-23T05:38:14;22.50;53.40
33580;DHT22;19909;43.644;-79.438;2022-07-23T05:40:40;22.50;53.50
33580;DHT22;19909;43.644;-79.438;2022-07-23T05:43:06;22.50;53.50
33580;DHT22;19909;43.644;-79.438;2022-07-23T05:45:32;22.50;53.40
33580;DHT22;19909;43.644;-79.438;2022-07-23T05:47:58;22.50;53.50
33580;DHT22;19909;43.644;-79.438;2022-07-23T05:50:24;22.50;53.40
33580;DHT22;19909;43.644;-79.438;2022-07-23T05:52:53;22.50;53.40
33580;DHT22;19909;43.644;-79.438;2022-07-23T05:55:19;22.50;53.40
33580;DHT22;19909;43.644;-79.438;2022-07-23T05:57:45;22.50;53.50
33580;DHT22;19909;43.644;-79.438;2022-07-23T06:00:11;22.50;53.40
33580;DHT22;19909;43.644;-79.438;2022-07-23T06:02:38;22.50;53.40
33580;DHT22;19909;43.644;-79.438;2022-07-23T06:05:06;22.50;53.40
33580;DHT22;19909;43.644;-79.438;2022-07-23T06:07:33;22.50;53.40
33580;DHT22;19909;43.644;-79.438;2022-07-23T06:10:00;22.50;53.40
33580;DHT22;19909;43.644;-79.438;2022-07-23T06:12:26;22.50;53.40
33580;DHT22;19909;43.644;-79.438;2022-07-23T06:14:52;22.40;53.40
33580;DHT22;19909;43.644;-79.438;2022-07-23T06:17:18;22.50;53.40
33580;DHT22;19909;43.644;-79.438;2022-07-23T06:19:45;22.40;53.40
33580;DHT22;19909;43.644;-79.438;2022-07-23T06:22:11;22.50;53.40
33580;DHT22;19909;43.644;-79.438;2022-07-23T06:24:37;22.50;53.50
33580;DHT22;19909;43.644;-79.438;2022-07-23T06:27:04;22.50;53.50
33580;DHT22;19909;43.644;-79.438;2022-07-23T06:29:30;22.50;53.50
33580;DHT22;19909;43.644;-79.438;2022-07-23T06:31:56;22.50;53.40
33580;DHT22;19909;43.644;-79.438;2022-07-23T06:34:22;22.50;53.40
33580;DHT22;19909;43.644;-79.438;2022-07-23T06:36:49;22.40;53.40
33580;DHT22;19909;43.644;-79.438;2022-07-23T06:39:15;22.40;53.40
33580;DHT22;19909;43.644;-79.438;2022-07-23T06:41:41;22.40;53.40
33580;DHT22;19909;43.644;-79.438;2022-07-23T06:44:07;22.40;53.40
33580;DHT22;19909;43.644;-79.438;2022-07-23T06:46:34;22.40;53.40
33580;DHT22;19909;43.644;-79.438;2022-07-23T06:49:00;22.40;53.40
33580;DHT22;19909;43.644;-79.438;2022-07-23T06:51:26;22.40;53.40
33580;DHT22;19909;43.644;-79.438;2022-07-23T06:53:52;22.40;53.40
33580;DHT22;19909;43.644;-79.438;2022-07-23T06:56:18;22.40;53.40
33580;DHT22;19909;43.644;-79.438;2022-07-23T06:58:45;22.40;53.50
33580;DHT22;19909;43.644;-79.438;2022-07-23T07:01:11;22.40;53.50
33580;DHT22;19909;43.644;-79.438;2022-07-23T07:03:38;22.40;53.50
33580;DHT22;19909;43.644;-79.438;2022-07-23T07:06:04;22.40;53.40
33580;DHT22;19909;43.644;-79.438;2022-07-23T07:08:30;22.40;53.50
33580;DHT22;19909;43.644;-79.438;2022-07-23T07:10:56;22.40;53.50
33580;DHT22;19909;43.644;-79.438;2022-07-23T07:13:22;22.40;53.50
33580;DHT22;19909;43.644;-79.438;2022-07-23T07:15:49;22.40;53.50
33580;DHT22;19909;43.644;-79.438;2022-07-23T07:18:15;22.50;53.50
33580;DHT22;19909;43.644;-79.438;2022-07-23T07:20:41;22.40;53.50
33580;DHT22;19909;43.644;-79.438;2022-07-23T07:23:07;22.40;53.50
33580;DHT22;19909;43.644;-79.438;2022-07-23T07:25:34;22.40;53.50
33580;DHT22;19909;43.644;-79.438;2022-07-23T07:28:00;22.40;53.50
33580;DHT22;19909;43.644;-79.438;2022-07-23T07:30:26;22.40;53.50
33580;DHT22;19909;43.644;-79.438;2022-07-23T07:32:53;22.50;53.60
33580;DHT22;19909;43.644;-79.438;2022-07-23T07:35:19;22.40;53.50
33580;DHT22;19909;43.644;-79.438;2022-07-23T07:37:46;22.40;53.50
33580;DHT22;19909;43.644;-79.438;2022-07-23T07:40:12;22.40;53.40
33580;DHT22;19909;43.644;-79.438;2022-07-23T07:42:49;22.40;53.40
33580;DHT22;19909;43.644;-79.438;2022-07-23T07:45:16;22.40;53.50
33580;DHT22;19909;43.644;-79.438;2022-07-23T07:47:43;22.40;53.40
33580;DHT22;19909;43.644;-79.438;2022-07-23T07:50:10;22.40;53.50
33580;DHT22;19909;43.644;-79.438;2022-07-23T07:52:36;22.40;53.40
33580;DHT22;19909;43.644;-79.438;2022-07-23T07:55:07;22.40;53.50
33580;DHT22;19909;43.644;-79.438;2022-07-23T07:57:35;22.40;53.50
33580;DHT22;19909;43.644;-79.438;2022-07-23T08:00:02;22.40;53.40
33580;DHT22;19909;43.644;-79.438;2022-07-23T08:02:28;22.40;53.30
33580;DHT22;19909;43.644;-79.438;2022-07-23T08:04:54;22.40;53.40
33580;DHT22;19909;43.644;-79.438;2022-07-23T08:07:23;22.40;53.30
33580;DHT22;19909;43.644;-79.438;2022-07-23T08:09:49;22.40;53.30
33580;DHT22;19909;43.644;-79.438;2022-07-23T08:12:15;22.40;53.30
33580;DHT22;19909;43.644;-79.438;2022-07-23T08:14:41;22.40;53.80
33580;DHT22;19909;43.644;-79.438;2022-07-23T08:17:07;22.40;53.40
33580;DHT22;19909;43.644;-79.438;2022-07-23T08:19:33;22.40;53.30
33580;DHT22;19909;43.644;-79.438;2022-07-23T08:22:00;22.40;53.20
33580;DHT22;19909;43.644;-79.438;2022-07-23T08:24:26;22.40;53.30
33580;DHT22;19909;43.644;-79.438;2022-07-23T08:26:52;22.40;53.30
33580;DHT22;19909;43.644;-79.438;2022-07-23T08:29:18;22.40;53.20
33580;DHT22;19909;43.644;-79.438;2022-07-23T08:31:44;22.40;53.20
33580;DHT22;19909;43.644;-79.438;2022-07-23T08:34:11;22.40;53.10
33580;DHT22;19909;43.644;-79.438;2022-07-23T08:36:37;22.40;53.20
33580;DHT22;19909;43.644;-79.438;2022-07-23T08:39:03;22.40;53.20
33580;DHT22;19909;43.644;-79.438;2022-07-23T08:41:30;22.40;53.20
33580;DHT22;19909;43.644;-79.438;2022-07-23T08:43:56;22.40;53.20
33580;DHT22;19909;43.644;-79.438;2022-07-23T08:46:24;22.40;53.10
33580;DHT22;19909;43.644;-79.438;2022-07-23T08:48:50;22.50;53.20
33580;DHT22;19909;43.644;-79.438;2022-07-23T08:51:17;22.40;53.20
33580;DHT22;19909;43.644;-79.438;2022-07-23T08:53:44;22.40;53.20
33580;DHT22;19909;43.644;-79.438;2022-07-23T08:56:11;22.40;53.10
33580;DHT22;19909;43.644;-79.438;2022-07-23T08:58:37;22.40;53.10
33580;DHT22;19909;43.644;-79.438;2022-07-23T09:01:04;22.40;53.10
33580;DHT22;19909;43.644;-79.438;2022-07-23T09:03:32;22.40;53.00
33580;DHT22;19909;43.644;-79.438;2022-07-23T09:05:59;22.40;53.00
33580;DHT22;19909;43.644;-79.438;2022-07-23T09:08:38;22.40;53.00
33580;DHT22;19909;43.644;-79.438;2022-07-23T09:11:09;22.40;53.00
33580;DHT22;19909;43.644;-79.438;2022-07-23T09:16:16;22.40;53.00
33580;DHT22;19909;43.644;-79.438;2022-07-23T09:18:47;22.40;53.00
33580;DHT22;19909;43.644;-79.438;2022-07-23T09:21:24;22.40;53.00
33580;DHT22;19909;43.644;-79.438;2022-07-23T09:26:28;22.40;53.10
33580;DHT22;19909;43.644;-79.438;2022-07-23T09:29:11;22.40;53.10
33580;DHT22;19909;43.644;-79.438;2022-07-23T09:32:04;22.40;53.20
33580;DHT22;19909;43.644;-79.438;2022-07-23T09:34:35;22.40;53.20
33580;DHT22;19909;43.644;-79.438;2022-07-23T09:37:30;22.40;53.30
33580;DHT22;19909;43.644;-79.438;2022-07-23T09:40:08;22.40;53.40
33580;DHT22;19909;43.644;-79.438;2022-07-23T09:42:34;22.40;53.40
33580;DHT22;19909;43.644;-79.438;2022-07-23T09:45:01;22.40;53.40
33580;DHT22;19909;43.644;-79.438;2022-07-23T09:47:31;22.40;53.30
33580;DHT22;19909;43.644;-79.438;2022-07-23T09:50:05;22.40;53.30
33580;DHT22;19909;43.644;-79.438;2022-07-23T09:52:45;22.40;53.40
33580;DHT22;19909;43.644;-79.438;2022-07-23T09:55:13;22.40;53.30
33580;DHT22;19909;43.644;-79.438;2022-07-23T09:57:43;22.40;53.40
33580;DHT22;19909;43.644;-79.438;2022-07-23T10:00:23;22.40;53.40
33580;DHT22;19909;43.644;-79.438;2022-07-23T10:02:50;22.40;53.30
33580;DHT22;19909;43.644;-79.438;2022-07-23T10:05:17;22.40;53.40
33580;DHT22;19909;43.644;-79.438;2022-07-23T10:07:45;22.40;53.30
33580;DHT22;19909;43.644;-79.438;2022-07-23T10:10:12;22.40;53.40
33580;DHT22;19909;43.644;-79.438;2022-07-23T10:12:39;22.40;53.30
33580;DHT22;19909;43.644;-79.438;2022-07-23T10:15:24;22.40;53.30
33580;DHT22;19909;43.644;-79.438;2022-07-23T10:17:51;22.40;53.30
33580;DHT22;19909;43.644;-79.438;2022-07-23T10:20:18;22.40;53.40
33580;DHT22;19909;43.644;-79.438;2022-07-23T10:23:14;22.40;53.40
33580;DHT22;19909;43.644;-79.438;2022-07-23T10:25:51;22.40;53.40
33580;DHT22;19909;43.644;-79.438;2022-07-23T10:31:38;22.40;53.80
33580;DHT22;19909;43.644;-79.438;2022-07-23T10:36:56;22.40;53.40
33580;DHT22;19909;43.644;-79.438;2022-07-23T10:39:33;22.30;53.50
33580;DHT22;19909;43.644;-79.438;2022-07-23T10:42:33;22.30;53.40
33580;DHT22;19909;43.644;-79.438;2022-07-23T10:44:59;22.40;53.50
33580;DHT22;19909;43.644;-79.438;2022-07-23T10:47:29;22.30;53.40
33580;DHT22;19909;43.644;-79.438;2022-07-23T10:50:25;22.30;53.60
33580;DHT22;19909;43.644;-79.438;2022-07-23T10:58:02;22.30;53.60
33580;DHT22;19909;43.644;-79.438;2022-07-23T11:00:33;22.40;53.50
33580;DHT22;19909;43.644;-79.438;2022-07-23T11:03:33;22.40;53.50
33580;DHT22;19909;43.644;-79.438;2022-07-23T11:06:02;22.40;53.40
33580;DHT22;19909;43.644;-79.438;2022-07-23T11:08:28;22.40;53.40
33580;DHT22;19909;43.644;-79.438;2022-07-23T11:11:07;22.40;53.40
33580;DHT22;19909;43.644;-79.438;2022-07-23T11:13:40;22.40;53.40
33580;DHT22;19909;43.644;-79.438;2022-07-23T11:16:19;22.40;53.30
33580;DHT22;19909;43.644;-79.438;2022-07-23T11:31:59;22.40;53.30
33580;DHT22;19909;43.644;-79.438;2022-07-23T11:34:35;22.40;53.30
33580;DHT22;19909;43.644;-79.438;2022-07-23T11:37:04;22.40;53.30
33580;DHT22;19909;43.644;-79.438;2022-07-23T11:39:31;22.40;53.40
33580;DHT22;19909;43.644;-79.438;2022-07-23T11:41:59;22.40;53.30
33580;DHT22;19909;43.644;-79.438;2022-07-23T11:44:34;22.40;53.30
33580;DHT22;19909;43.644;-79.438;2022-07-23T11:47:09;22.40;53.30
33580;DHT22;19909;43.644;-79.438;2022-07-23T11:49:36;22.40;53.30
33580;DHT22;19909;43.644;-79.438;2022-07-23T11:52:28;22.40;53.30
33580;DHT22;19909;43.644;-79.438;2022-07-23T11:54:56;22.40;53.30
33580;DHT22;19909;43.644;-79.438;2022-07-23T11:57:34;22.40;53.30
33580;DHT22;19909;43.644;-79.438;2022-07-23T12:00:11;22.30;53.30
33580;DHT22;19909;43.644;-79.438;2022-07-23T12:02:39;22.40;53.30
33580;DHT22;19909;43.644;-79.438;2022-07-23T12:05:06;22.40;53.30
33580;DHT22;19909;43.644;-79.438;2022-07-23T12:07:39;22.40;53.40
33580;DHT22;19909;43.644;-79.438;2022-07-23T12:12:43;22.40;53.20
33580;DHT22;19909;43.644;-79.438;2022-07-23T12:15:12;22.40;53.20
33580;DHT22;19909;43.644;-79.438;2022-07-23T12:17:40;22.40;53.20
33580;DHT22;19909;43.644;-79.438;2022-07-23T12:20:09;22.40;53.20
33580;DHT22;19909;43.644;-79.438;2022-07-23T12:22:42;22.40;53.20
33580;DHT22;19909;43.644;-79.438;2022-07-23T12:25:15;22.30;53.10
33580;DHT22;19909;43.644;-79.438;2022-07-23T12:27:42;22.40;53.20
33580;DHT22;19909;43.644;-79.438;2022-07-23T12:33:10;22.40;53.10
33580;DHT22;19909;43.644;-79.438;2022-07-23T12:35:39;22.40;53.10
33580;DHT22;19909;43.644;-79.438;2022-07-23T12:38:17;22.30;53.60
33580;DHT22;19909;43.644;-79.438;2022-07-23T12:40:45;22.40;53.00
33580;DHT22;19909;43.644;-79.438;2022-07-23T12:43:34;22.30;53.00
33580;DHT22;19909;43.644;-79.438;2022-07-23T12:46:12;22.30;53.60
33580;DHT22;19909;43.644;-79.438;2022-07-23T12:48:52;22.30;53.10
33580;DHT22;19909;43.644;-79.438;2022-07-23T12:51:30;22.30;53.10
33580;DHT22;19909;43.644;-79.438;2022-07-23T12:54:06;22.30;53.20
33580;DHT22;19909;43.644;-79.438;2022-07-23T12:56:44;22.40;53.30
33580;DHT22;19909;43.644;-79.438;2022-07-23T12:59:15;22.30;53.20
33580;DHT22;19909;43.644;-79.438;2022-07-23T13:01:43;22.30;53.30
33580;DHT22;19909;43.644;-79.438;2022-07-23T13:04:21;22.30;53.30
33580;DHT22;19909;43.644;-79.438;2022-07-23T13:06:59;22.30;53.30
33580;DHT22;19909;43.644;-79.438;2022-07-23T13:09:30;22.30;53.10
33580;DHT22;19909;43.644;-79.438;2022-07-23T13:11:57;22.30;53.20
33580;DHT22;19909;43.644;-79.438;2022-07-23T13:14:25;22.30;53.20
33580;DHT22;19909;43.644;-79.438;2022-07-23T13:16:53;22.30;53.20
33580;DHT22;19909;43.644;-79.438;2022-07-23T13:19:19;22.30;53.10
33580;DHT22;19909;43.644;-79.438;2022-07-23T13:21:48;22.30;53.20
33580;DHT22;19909;43.644;-79.438;2022-07-23T13:24:14;22.30;53.10
33580;DHT22;19909;43.644;-79.438;2022-07-23T13:26:41;22.30;53.10
33580;DHT22;19909;43.644;-79.438;2022-07-23T13:29:08;22.30;53.10
33580;DHT22;19909;43.644;-79.438;2022-07-23T13:31:36;22.30;53.20
33580;DHT22;19909;43.644;-79.438;2022-07-23T13:34:03;22.30;53.10
33580;DHT22;19909;43.644;-79.438;2022-07-23T13:36:29;22.30;53.10
33580;DHT22;19909;43.644;-79.438;2022-07-23T13:38:56;22.30;53.00
33580;DHT22;19909;43.644;-79.438;2022-07-23T13:41:22;22.30;53.10
33580;DHT22;19909;43.644;-79.438;2022-07-23T13:43:49;22.30;53.00
33580;DHT22;19909;43.644;-79.438;2022-07-23T13:46:16;22.30;53.00
33580;DHT22;19909;43.644;-79.438;2022-07-23T13:48:42;22.30;53.00
33580;DHT22;19909;43.644;-79.438;2022-07-23T13:51:08;22.30;53.00
33580;DHT22;19909;43.644;-79.438;2022-07-23T13:53:34;22.30;53.60
33580;DHT22;19909;43.644;-79.438;2022-07-23T13:56:00;22.30;53.10
33580;DHT22;19909;43.644;-79.438;2022-07-23T13:58:27;22.30;53.00
33580;DHT22;19909;43.644;-79.438;2022-07-23T14:00:53;22.30;53.00
33580;DHT22;19909;43.644;-79.438;2022-07-23T14:03:21;22.30;53.00
33580;DHT22;19909;43.644;-79.438;2022-07-23T14:05:51;22.30;53.00
33580;DHT22;19909;43.644;-79.438;2022-07-23T14:08:18;22.30;53.00
33580;DHT22;19909;43.644;-79.438;2022-07-23T14:10:44;22.30;53.00
33580;DHT22;19909;43.644;-79.438;2022-07-23T14:13:10;22.20;53.00
33580;DHT22;19909;43.644;-79.438;2022-07-23T14:15:36;22.30;53.00
33580;DHT22;19909;43.644;-79.438;2022-07-23T14:18:06;22.30;53.00
33580;DHT22;19909;43.644;-79.438;2022-07-23T14:20:33;22.20;53.00
33580;DHT22;19909;43.644;-79.438;2022-07-23T14:22:59;22.20;53.00
33580;DHT22;19909;43.644;-79.438;2022-07-23T14:25:26;22.30;53.00
33580;DHT22;19909;43.644;-79.438;2022-07-23T14:27:53;22.30;53.00
33580;DHT22;19909;43.644;-79.438;2022-07-23T14:30:19;22.30;53.00
33580;DHT22;19909;43.644;-79.438;2022-07-23T14:32:45;22.20;53.00
33580;DHT22;19909;43.644;-79.438;2022-07-23T14:35:11;22.30;53.10
33580;DHT22;19909;43.644;-79.438;2022-07-23T14:37:39;22.20;53.10
33580;DHT22;19909;43.644;-79.438;2022-07-23T14:40:06;22.20;53.10
33580;DHT22;19909;43.644;-79.438;2022-07-23T14:42:33;22.30;53.10
33580;DHT22;19909;43.644;-79.438;2022-07-23T14:44:59;22.20;53.00
33580;DHT22;19909;43.644;-79.438;2022-07-23T14:47:26;22.20;53.00
33580;DHT22;19909;43.644;-79.438;2022-07-23T14:49:52;22.30;53.10
33580;DHT22;19909;43.644;-79.438;2022-07-23T14:52:18;22.20;53.00
33580;DHT22;19909;43.644;-79.438;2022-07-23T14:54:44;22.30;53.10
33580;DHT22;19909;43.644;-79.438;2022-07-23T14:57:10;22.20;53.00
33580;DHT22;19909;43.644;-79.438;2022-07-23T14:59:36;22.30;53.10
33580;DHT22;19909;43.644;-79.438;2022-07-23T15:02:02;22.20;53.30
33580;DHT22;19909;43.644;-79.438;2022-07-23T15:04:29;22.20;53.10
33580;DHT22;19909;43.644;-79.438;2022-07-23T15:06:55;22.20;53.10
33580;DHT22;19909;43.644;-79.438;2022-07-23T15:09:21;22.20;53.00
33580;DHT22;19909;43.644;-79.438;2022-07-23T15:11:47;22.20;53.10
33580;DHT22;19909;43.644;-79.438;2022-07-23T15:14:13;22.20;53.00
33580;DHT22;19909;43.644;-79.438;2022-07-23T15:16:40;22.20;53.00
33580;DHT22;19909;43.644;-79.438;2022-07-23T15:19:06;22.20;53.10
33580;DHT22;19909;43.644;-79.438;2022-07-23T15:21:32;22.20;53.00
33580;DHT22;19909;43.644;-79.438;2022-07-23T15:23:59;22.20;53.00
33580;DHT22;19909;43.644;-79.438;2022-07-23T15:26:29;22.20;53.00
33580;DHT22;19909;43.644;-79.438;2022-07-23T15:28:56;22.20;53.00
33580;DHT22;19909;43.644;-79.438;2022-07-23T15:31:24;22.20;53.10
33580;DHT22;19909;43.644;-79.438;2022-07-23T15:33:51;22.20;53.10
33580;DHT22;19909;43.644;-79.438;2022-07-23T15:36:18;22.20;53.10
33580;DHT22;19909;43.644;-79.438;2022-07-23T15:38:45;22.20;53.10
33580;DHT22;19909;43.644;-79.438;2022-07-23T15:41:12;22.20;53.10
33580;DHT22;19909;43.644;-79.438;2022-07-23T15:43:38;22.20;53.00